createdAt,value
2018-06-08T00:01:55.728Z,56.73
2018-06-08T00:04:28.341Z,62.05
2018-06-08T00:07:01.044Z,66.60
2018-06-08T00:09:34.934Z,56.50
2018-06-08T00:12:07.963Z,55.17
2018-06-08T00:14:40.604Z,56.47
2018-06-08T00:17:14.921Z,49.30
2018-06-08T00:19:48.221Z,59.60
2018-06-08T00:22:27.320Z,54.80
2018-06-08T00:25:00.569Z,57.00
2018-06-08T00:27:33.051Z,52.67
2018-06-08T00:30:11.056Z,54.43
2018-06-08T00:32:45.769Z,52.17
2018-06-08T00:35:24.627Z,46.63
2018-06-08T00:37:58.073Z,50.43
2018-06-08T00:40:31.481Z,47.07
2018-06-08T00:43:06.699Z,43.57
2018-06-08T00:45:42.072Z,40.77
2018-06-08T00:48:14.847Z,51.53
2018-06-08T00:50:47.969Z,56.83
2018-06-08T00:53:20.540Z,50.53
2018-06-08T00:55:53.968Z,54.50
2018-06-08T00:58:27.992Z,52.70
2018-06-08T01:03:33.695Z,53.17
2018-06-08T01:06:08.223Z,47.67
2018-06-08T01:08:40.975Z,51.33
2018-06-08T01:11:14.008Z,44.23
2018-06-08T01:13:46.973Z,52.97
2018-06-08T01:16:20.534Z,56.70
2018-06-08T01:18:54.056Z,63.90
2018-06-08T01:21:27.129Z,62.27
2018-06-08T01:23:59.699Z,51.30
2018-06-08T01:26:32.261Z,52.53
2018-06-08T01:29:05.561Z,49.33
2018-06-08T01:31:38.492Z,51.13
2018-06-08T01:34:11.598Z,67.47
2018-06-08T01:36:44.444Z,72.53
2018-06-08T01:39:17.328Z,53.93
2018-06-08T01:41:52.773Z,55.67
2018-06-08T01:44:25.868Z,53.87
2018-06-08T01:46:59.544Z,54.13
2018-06-08T01:49:31.964Z,55.23
2018-06-08T01:52:04.791Z,48.60
2018-06-08T01:54:37.403Z,53.77
2018-06-08T01:57:10.113Z,52.97
2018-06-08T01:59:43.043Z,51.47
2018-06-08T02:02:15.900Z,46.50
2018-06-08T02:04:49.765Z,56.43
2018-06-08T02:07:23.358Z,49.40
2018-06-08T02:09:55.978Z,73.30
2018-06-08T02:12:28.568Z,61.83
2018-06-08T02:15:04.609Z,49.10
2018-06-08T02:17:37.424Z,67.12
2018-06-08T02:20:09.999Z,54.03
2018-06-08T02:22:42.877Z,49.37
2018-06-08T02:25:15.569Z,47.83
2018-06-08T02:27:48.236Z,54.10
2018-06-08T02:30:22.047Z,53.73
2018-06-08T02:32:54.714Z,51.40
2018-06-08T02:35:27.477Z,40.40
2018-06-08T02:38:00.942Z,51.67
2018-06-08T02:40:34.733Z,43.67
2018-06-08T02:43:08.054Z,52.17
2018-06-08T02:45:40.769Z,66.18
2018-06-08T02:48:14.413Z,55.47
2018-06-08T02:50:47.030Z,54.77
2018-06-08T02:53:21.105Z,47.30
2018-06-08T02:55:53.586Z,51.57
2018-06-08T02:58:26.414Z,57.83
2018-06-08T03:00:59.193Z,58.60
2018-06-08T03:03:31.889Z,59.37
2018-06-08T03:06:04.350Z,58.43
2018-06-08T03:08:37.145Z,56.07
2018-06-08T03:11:09.673Z,72.07
2018-06-08T03:13:43.691Z,56.17
2018-06-08T03:16:17.222Z,56.70
2018-06-08T03:18:50.329Z,51.57
2018-06-08T03:21:23.384Z,47.80
2018-06-08T03:23:56.303Z,53.37
2018-06-08T03:26:29.572Z,68.77
2018-06-08T03:29:05.909Z,63.87
2018-06-08T03:31:38.492Z,53.97
2018-06-08T03:34:11.102Z,58.77
2018-06-08T03:36:43.640Z,48.10
2018-06-08T03:39:17.216Z,53.57
2018-06-08T03:41:50.012Z,54.37
2018-06-08T03:44:25.696Z,43.77
2018-06-08T03:46:59.830Z,58.53
2018-06-08T03:49:33.408Z,75.10
2018-06-08T03:52:06.057Z,55.07
2018-06-08T03:54:39.109Z,59.50
2018-06-08T03:57:11.660Z,57.97
2018-06-08T03:59:45.297Z,52.60
2018-06-08T04:02:18.188Z,58.30
2018-06-08T04:04:53.447Z,47.83
2018-06-08T04:07:27.554Z,59.93
2018-06-08T04:10:01.603Z,60.23
2018-06-08T04:12:34.761Z,57.80
2018-06-08T04:15:07.323Z,56.63
2018-06-08T04:17:40.220Z,64.73
2018-06-08T04:20:12.628Z,61.33
2018-06-08T04:22:45.424Z,60.13
2018-06-08T04:25:18.515Z,59.37
2018-06-08T04:27:51.541Z,53.67
2018-06-08T04:30:24.874Z,65.27
2018-06-08T04:32:58.477Z,56.03
2018-06-08T04:35:32.328Z,66.45
2018-06-08T04:38:06.813Z,61.67
2018-06-08T04:40:39.381Z,51.97
2018-06-08T04:43:12.290Z,55.10
2018-06-08T04:45:45.397Z,53.87
2018-06-08T04:48:18.013Z,80.35
2018-06-08T04:50:50.476Z,55.03
2018-06-08T04:53:24.500Z,55.73
2018-06-08T04:55:57.127Z,50.93
2018-06-08T04:58:30.396Z,52.20
2018-06-08T05:01:03.301Z,57.63
2018-06-08T05:03:37.086Z,48.13
2018-06-08T05:06:09.606Z,67.07
2018-06-08T05:08:42.496Z,60.47
2018-06-08T05:11:14.982Z,57.80
2018-06-08T05:13:49.711Z,64.23
2018-06-08T05:16:23.368Z,63.00
2018-06-08T05:18:57.260Z,58.50
2018-06-08T05:21:30.430Z,55.53
2018-06-08T05:24:03.696Z,57.60
2018-06-08T05:26:37.456Z,68.30
2018-06-08T05:29:10.515Z,62.00
2018-06-08T05:31:43.198Z,64.30
2018-06-08T05:34:16.731Z,59.53
2018-06-08T05:36:49.795Z,61.67
2018-06-08T05:41:48.090Z,66.55
2018-06-08T05:44:21.898Z,53.23
2018-06-08T05:46:55.247Z,49.17
2018-06-08T05:49:28.563Z,51.13
2018-06-08T05:52:01.223Z,47.87
2018-06-08T05:54:34.266Z,47.77
2018-06-08T05:57:06.824Z,51.37
2018-06-08T05:59:39.747Z,45.60
2018-06-08T06:02:15.599Z,46.83
2018-06-08T06:04:49.356Z,47.73
2018-06-08T06:07:22.252Z,45.10
2018-06-08T06:09:55.356Z,44.73
2018-06-08T06:12:29.587Z,43.63
2018-06-08T06:15:06.750Z,39.57
2018-06-08T06:17:42.438Z,37.87
2018-06-08T06:20:17.789Z,37.33
2018-06-08T06:22:53.320Z,36.87
2018-06-08T06:25:26.928Z,40.78
2018-06-08T06:27:59.400Z,33.37
2018-06-08T06:30:32.196Z,31.77
2018-06-08T06:33:05.787Z,30.37
2018-06-08T06:35:39.454Z,28.97
2018-06-08T06:38:12.297Z,26.23
2018-06-08T06:40:45.279Z,27.23
2018-06-08T06:43:17.719Z,26.43
2018-06-08T06:45:50.065Z,26.37
2018-06-08T06:48:23.739Z,23.97
2018-06-08T06:50:56.133Z,21.87
2018-06-08T06:53:28.466Z,20.83
2018-06-08T06:56:01.974Z,22.50
2018-06-08T06:58:34.964Z,22.77
2018-06-08T07:01:08.013Z,22.20
2018-06-08T07:03:43.284Z,24.17
2018-06-08T07:06:15.848Z,20.40
2018-06-08T07:08:48.416Z,20.80
2018-06-08T07:11:21.208Z,20.97
2018-06-08T07:13:57.289Z,21.90
2018-06-08T07:16:29.948Z,20.80
2018-06-08T07:19:02.871Z,21.33
2018-06-08T07:21:37.350Z,21.40
2018-06-08T07:24:11.450Z,22.10
2018-06-08T07:26:47.764Z,22.13
2018-06-08T07:29:39.809Z,22.30
2018-06-08T07:32:13.148Z,21.87
2018-06-08T07:34:48.212Z,20.60
2018-06-08T07:37:21.099Z,23.07
2018-06-08T07:39:56.375Z,21.30
2018-06-08T07:42:29.061Z,20.17
2018-06-08T07:45:04.071Z,22.83
2018-06-08T07:47:37.089Z,24.37
2018-06-08T07:50:09.685Z,24.00
2018-06-08T07:52:44.314Z,24.63
2018-06-08T07:55:17.057Z,26.70
2018-06-08T07:57:52.534Z,22.73
2018-06-08T08:00:26.538Z,24.70
2018-06-08T08:03:00.197Z,25.43
2018-06-08T08:05:32.911Z,26.10
2018-06-08T08:08:07.195Z,27.27
2018-06-08T08:10:39.818Z,26.00
2018-06-08T08:13:13.417Z,30.90
2018-06-08T08:15:49.363Z,30.23
2018-06-08T08:18:22.860Z,28.27
2018-06-08T08:20:55.421Z,29.37
2018-06-08T08:23:33.320Z,29.20
2018-06-08T08:26:08.260Z,29.20
2018-06-08T08:28:46.096Z,30.03
2018-06-08T08:31:18.777Z,32.37
2018-06-08T08:33:52.771Z,35.00
2018-06-08T08:36:29.414Z,29.80
2018-06-08T08:39:05.213Z,29.97
2018-06-08T08:41:39.087Z,29.50
2018-06-08T08:44:12.597Z,28.93
2018-06-08T08:46:47.932Z,29.13
2018-06-08T08:49:24.248Z,30.17
2018-06-08T08:51:58.086Z,27.07
2018-06-08T08:54:32.332Z,28.57
2018-06-08T08:57:06.212Z,25.10
2018-06-08T08:59:43.875Z,25.60
2018-06-08T09:02:17.598Z,28.30
2018-06-08T09:04:52.479Z,27.37
2018-06-08T09:07:26.767Z,29.67
2018-06-08T09:10:00.837Z,29.30
2018-06-08T09:12:33.992Z,26.97
2018-06-08T09:15:06.738Z,31.17
2018-06-08T09:17:39.822Z,28.03
2018-06-08T09:20:14.515Z,30.65
2018-06-08T09:22:51.025Z,29.80
2018-06-08T09:25:24.776Z,31.40
2018-06-08T09:27:58.001Z,31.10
2018-06-08T09:30:30.534Z,33.90
2018-06-08T09:33:03.418Z,29.47
2018-06-08T09:35:37.835Z,31.57
2018-06-08T09:38:11.686Z,30.83
2018-06-08T09:40:49.288Z,32.53
2018-06-08T09:43:24.728Z,41.43
2018-06-08T09:45:59.812Z,44.60
2018-06-08T09:48:33.110Z,46.35
2018-06-08T09:51:06.711Z,47.90
2018-06-08T09:53:47.236Z,50.42
2018-06-08T09:56:25.926Z,44.70
2018-06-08T09:59:07.106Z,43.30
2018-06-08T10:01:48.269Z,41.83
2018-06-08T10:04:30.311Z,54.17
2018-06-08T10:07:04.973Z,50.33
2018-06-08T10:09:37.492Z,55.80
2018-06-08T10:12:11.788Z,49.03
2018-06-08T10:14:48.157Z,48.33
2018-06-08T10:17:21.697Z,43.87
2018-06-08T10:19:58.116Z,45.07
2018-06-08T10:22:31.360Z,45.03
2018-06-08T10:25:06.197Z,39.73
2018-06-08T10:27:39.241Z,46.93
2018-06-08T10:30:13.664Z,55.43
2018-06-08T10:32:47.712Z,49.30
2018-06-08T10:35:20.603Z,45.07
2018-06-08T10:37:56.454Z,49.10
2018-06-08T10:40:31.016Z,42.87
2018-06-08T10:43:06.255Z,40.77
2018-06-08T10:45:39.881Z,41.13
2018-06-08T10:48:30.568Z,38.67
2018-06-08T10:51:04.643Z,36.67
2018-06-08T10:53:39.324Z,34.93
2018-06-08T10:56:13.597Z,33.07
2018-06-08T10:58:48.031Z,31.70
2018-06-08T11:01:22.171Z,30.83
2018-06-08T11:03:58.137Z,31.90
2018-06-08T11:06:42.725Z,29.77
2018-06-08T11:09:16.275Z,37.27
2018-06-08T11:11:49.100Z,27.77
2018-06-08T11:14:23.581Z,30.27
2018-06-08T11:17:00.827Z,34.55
2018-06-08T11:19:35.840Z,34.57
2018-06-08T11:22:10.257Z,30.23
2018-06-08T11:24:44.703Z,31.07
2018-06-08T11:27:18.602Z,28.63
2018-06-08T11:29:59.197Z,26.17
2018-06-08T11:32:33.707Z,28.73
2018-06-08T11:35:07.156Z,29.43
2018-06-08T11:37:43.810Z,28.07
2018-06-08T11:40:19.428Z,23.73
2018-06-08T11:42:59.968Z,23.20
2018-06-08T11:45:36.082Z,22.10
2018-06-08T11:48:09.803Z,20.77
2018-06-08T11:50:45.224Z,20.47
2018-06-08T11:53:18.701Z,27.45
2018-06-08T11:55:58.028Z,24.47
2018-06-08T11:58:32.531Z,23.60
2018-06-08T12:01:07.443Z,26.37
2018-06-08T12:03:40.012Z,27.50
2018-06-08T12:06:26.387Z,29.07
2018-06-08T12:09:08.845Z,29.93
2018-06-08T12:11:43.590Z,34.22
2018-06-08T12:14:17.183Z,34.00
2018-06-08T12:16:49.723Z,28.93
2018-06-08T12:19:22.765Z,33.80
2018-06-08T12:21:56.846Z,31.13
2018-06-08T12:24:29.613Z,32.03
2018-06-08T12:27:06.900Z,33.00
2018-06-08T12:29:43.957Z,31.23
2018-06-08T12:32:27.716Z,35.05
2018-06-08T12:35:06.867Z,28.27
2018-06-08T12:37:45.107Z,28.60
2018-06-08T12:40:18.445Z,25.87
2018-06-08T12:42:53.291Z,26.00
2018-06-08T12:45:30.572Z,27.83
2018-06-08T12:48:06.544Z,25.17
2018-06-08T12:50:41.288Z,25.03
2018-06-08T12:53:14.713Z,25.57
2018-06-08T12:55:48.723Z,27.27
2018-06-08T12:58:22.558Z,25.77
2018-06-08T13:00:59.199Z,24.37
2018-06-08T13:03:35.192Z,24.50
2018-06-08T13:06:09.021Z,21.43
2018-06-08T13:08:42.956Z,21.97
2018-06-08T13:11:23.671Z,23.23
2018-06-08T13:13:57.909Z,26.83
2018-06-08T13:16:32.385Z,23.70
2018-06-08T13:19:05.823Z,24.60
2018-06-08T13:21:40.809Z,23.40
2018-06-08T13:24:18.949Z,25.53
2018-06-08T13:26:54.366Z,26.63
2018-06-08T13:29:29.018Z,29.33
2018-06-08T13:32:02.841Z,27.27
2018-06-08T13:34:38.948Z,25.93
2018-06-08T13:37:21.250Z,25.37
2018-06-08T13:39:56.623Z,24.07
2018-06-08T13:42:39.354Z,23.63
2018-06-08T13:45:18.504Z,27.03
2018-06-08T13:47:54.773Z,26.23
2018-06-08T13:50:29.309Z,27.43
2018-06-08T13:53:08.031Z,31.30
2018-06-08T13:55:42.942Z,29.00
2018-06-08T13:58:21.704Z,29.20
2018-06-08T14:00:55.592Z,29.43
2018-06-08T14:03:32.772Z,31.30
2018-06-08T14:06:14.410Z,29.00
2018-06-08T14:08:50.502Z,28.87
2018-06-08T14:11:29.864Z,27.33
2018-06-08T14:14:06.580Z,28.95
2018-06-08T14:16:42.686Z,29.17
2018-06-08T14:19:22.004Z,27.07
2018-06-08T14:21:54.998Z,27.67
2018-06-08T14:24:31.356Z,29.20
2018-06-08T14:27:05.901Z,31.10
2018-06-08T14:29:48.552Z,27.63
2018-06-08T14:32:26.959Z,27.30
2018-06-08T14:35:01.039Z,25.23
2018-06-08T14:37:35.836Z,29.23
2018-06-08T14:40:09.219Z,26.23
2018-06-08T14:42:42.765Z,23.60
2018-06-08T14:45:27.628Z,24.77
2018-06-08T14:48:03.275Z,23.80
2018-06-08T14:50:37.701Z,24.77
2018-06-08T14:53:28.199Z,24.30
2018-06-08T14:56:06.472Z,27.53
2018-06-08T14:58:49.391Z,30.53
2018-06-08T15:01:26.824Z,26.87
2018-06-08T15:04:10.163Z,28.90
2018-06-08T15:06:44.417Z,28.90
2018-06-08T15:09:29.772Z,24.47
2018-06-08T15:12:04.687Z,33.67
2018-06-08T15:14:37.808Z,24.97
2018-06-08T15:17:11.225Z,30.43
2018-06-08T15:19:46.546Z,30.37
2018-06-08T15:22:26.957Z,32.50
2018-06-08T15:25:02.079Z,37.03
2018-06-08T15:27:40.018Z,34.03
2018-06-08T15:30:14.708Z,37.57
2018-06-08T15:32:47.465Z,36.97
2018-06-08T15:35:25.373Z,40.40
2018-06-08T15:37:59.173Z,38.77
2018-06-08T15:40:41.954Z,39.07
2018-06-08T15:43:16.025Z,38.47
2018-06-08T15:45:50.757Z,39.28
2018-06-08T15:48:32.108Z,38.77
2018-06-08T15:51:07.488Z,37.43
2018-06-08T15:53:40.615Z,39.73
2018-06-08T15:56:15.054Z,41.03
2018-06-08T15:58:49.611Z,43.37
2018-06-08T16:01:22.406Z,38.10
2018-06-08T16:03:58.848Z,42.33
2018-06-08T16:06:39.074Z,41.63
2018-06-08T16:09:12.323Z,45.60
2018-06-08T16:11:45.289Z,45.10
2018-06-08T16:14:19.447Z,44.47
2018-06-08T16:16:53.772Z,42.90
2018-06-08T16:19:37.196Z,41.53
2018-06-08T16:22:11.283Z,44.03
2018-06-08T16:24:46.092Z,41.90
2018-06-08T16:27:21.388Z,34.70
2018-06-08T16:29:57.148Z,40.50
2018-06-08T16:32:37.653Z,42.60
2018-06-08T16:35:11.344Z,38.03
2018-06-08T16:37:47.019Z,39.27
2018-06-08T16:40:29.981Z,42.30
2018-06-08T16:43:04.232Z,39.43
2018-06-08T16:45:38.683Z,37.57
2018-06-08T16:48:12.256Z,34.87
2018-06-08T16:50:47.283Z,37.00
2018-06-08T16:53:27.627Z,34.80
2018-06-08T16:56:02.220Z,37.23
2018-06-08T16:58:38.619Z,36.70
2018-06-08T17:01:11.105Z,34.07
2018-06-08T17:03:44.709Z,33.70
2018-06-08T17:06:19.652Z,31.50
2018-06-08T17:08:52.132Z,34.73
2018-06-08T17:11:34.654Z,32.93
2018-06-08T17:14:08.502Z,32.30
2018-06-08T17:16:48.401Z,32.77
2018-06-08T17:19:22.553Z,34.67
2018-06-08T17:22:01.961Z,35.27
2018-06-08T17:24:39.883Z,33.97
2018-06-08T17:27:20.256Z,31.03
2018-06-08T17:29:57.316Z,31.77
2018-06-08T17:32:42.084Z,32.53
2018-06-08T17:35:17.226Z,33.50
2018-06-08T17:37:52.395Z,32.50
2018-06-08T17:40:39.757Z,33.80
2018-06-08T17:43:25.150Z,34.13
2018-06-08T17:46:04.772Z,37.33
2018-06-08T17:48:43.957Z,38.72
2018-06-08T17:51:21.676Z,35.78
2018-06-08T17:54:00.931Z,35.33
2018-06-08T17:56:35.984Z,32.70
2018-06-08T17:59:14.028Z,32.63
2018-06-08T18:01:51.957Z,34.35
2018-06-08T18:04:29.787Z,28.57
2018-06-08T18:07:08.487Z,27.60
2018-06-08T18:09:44.096Z,26.90
2018-06-08T18:12:17.345Z,26.50
2018-06-08T18:14:52.789Z,29.73
2018-06-08T18:17:26.907Z,29.53
2018-06-08T18:20:07.548Z,32.40
2018-06-08T18:22:44.667Z,36.45
2018-06-08T18:25:21.832Z,38.23
2018-06-08T18:28:04.060Z,35.67
2018-06-08T18:30:38.791Z,39.23
2018-06-08T18:33:14.767Z,41.63
2018-06-08T18:36:10.517Z,34.97
2018-06-08T18:38:45.866Z,36.23
2018-06-08T18:41:21.032Z,33.47
2018-06-08T18:43:59.839Z,35.53
2018-06-08T18:46:36.061Z,33.43
2018-06-08T18:49:17.945Z,34.07
2018-06-08T18:51:59.842Z,32.60
2018-06-08T18:55:00.318Z,34.83
2018-06-08T18:57:35.468Z,29.80
2018-06-08T19:00:08.132Z,31.30
2018-06-08T19:02:42.420Z,33.00
2018-06-08T19:05:17.109Z,30.50
2018-06-08T19:07:59.884Z,34.23
2018-06-08T19:10:39.751Z,37.03
2018-06-08T19:23:15.248Z,38.57
2018-06-08T19:25:54.135Z,40.07
2018-06-08T19:28:28.725Z,41.88
2018-06-08T19:31:02.552Z,33.83
2018-06-08T19:33:36.578Z,40.00
2018-06-08T19:36:09.285Z,47.17
2018-06-08T19:38:43.600Z,42.20
2018-06-08T19:41:20.842Z,45.80
2018-06-08T19:44:05.965Z,46.87
2018-06-08T19:46:42.174Z,48.63
2018-06-08T19:49:17.870Z,43.93
2018-06-08T19:51:55.415Z,45.27
2018-06-08T19:54:29.325Z,49.63
2018-06-08T19:57:08.768Z,47.40
2018-06-08T19:59:48.073Z,55.72
2018-06-08T20:02:24.998Z,51.57
2018-06-08T20:05:03.829Z,51.13
2018-06-08T20:07:44.429Z,50.87
2018-06-08T20:10:19.319Z,51.20
2018-06-08T20:12:52.765Z,65.95
2018-06-08T20:15:27.997Z,45.03
2018-06-08T20:18:27.046Z,54.97
2018-06-08T20:21:06.281Z,49.33
2018-06-08T20:23:41.249Z,51.97
2018-06-08T20:26:17.424Z,52.57
2018-06-08T20:28:52.110Z,54.57
2018-06-08T20:31:27.457Z,59.37
2018-06-08T20:34:10.421Z,57.20
2018-06-08T20:36:45.469Z,62.85
2018-06-08T20:39:23.112Z,57.13
2018-06-08T20:41:58.838Z,54.10
2018-06-08T20:44:34.321Z,59.97
2018-06-08T20:47:13.110Z,57.30
2018-06-08T20:50:10.007Z,61.47
2018-06-08T20:52:48.540Z,63.83
2018-06-08T20:55:32.141Z,61.67
2018-06-08T20:58:26.473Z,59.88
2018-06-08T21:01:12.849Z,63.37
2018-06-08T21:03:51.200Z,66.93
2018-06-08T21:06:30.806Z,66.07
2018-06-08T21:09:12.137Z,58.03
2018-06-08T21:11:50.549Z,57.10
2018-06-08T21:14:28.424Z,59.50
2018-06-08T21:17:04.450Z,70.80
2018-06-08T21:19:42.540Z,69.32
2018-06-08T21:22:23.673Z,58.07
2018-06-08T21:24:58.615Z,56.53
2018-06-08T21:27:51.886Z,67.73
2018-06-08T21:30:39.826Z,62.97
2018-06-08T21:33:18.381Z,63.33
2018-06-08T21:35:55.671Z,64.03
2018-06-08T21:38:31.863Z,62.93
2018-06-08T21:41:16.044Z,61.83
2018-06-08T21:44:01.446Z,55.90
2018-06-08T21:46:35.125Z,70.37
2018-06-08T21:49:11.356Z,57.37
2018-06-08T21:51:54.498Z,60.57
2018-06-08T21:54:28.806Z,59.47
2018-06-08T21:57:04.480Z,62.27
2018-06-08T21:59:37.026Z,64.77
2018-06-08T22:02:11.914Z,77.60
2018-06-08T22:04:46.182Z,76.47
2018-06-08T22:07:21.901Z,71.23
2018-06-08T22:10:02.256Z,64.27
2018-06-08T22:12:40.855Z,62.23
2018-06-08T22:15:16.509Z,81.23
2018-06-08T22:17:51.623Z,70.97
2018-06-08T22:20:26.457Z,63.30
2018-06-08T22:22:59.953Z,62.50
2018-06-08T22:25:33.126Z,58.13
2018-06-08T22:28:06.090Z,76.10
2018-06-08T22:30:39.688Z,67.13
2018-06-08T22:33:15.629Z,72.30
2018-06-08T22:35:50.288Z,98.72
2018-06-08T22:38:27.686Z,117.18
2018-06-08T22:41:10.474Z,93.23
2018-06-08T22:45:13.121Z,100.87
2018-06-08T22:47:47.134Z,116.90
2018-06-08T22:50:21.508Z,99.87
2018-06-08T22:52:57.301Z,98.20
2018-06-08T22:55:30.598Z,102.38
2018-06-08T22:58:06.309Z,108.30
2018-06-08T23:00:39.926Z,96.43
2018-06-08T23:03:14.172Z,119.18
2018-06-08T23:05:49.025Z,105.03
2018-06-08T23:08:25.878Z,93.43
2018-06-08T23:11:00.078Z,71.73
2018-06-08T23:13:34.078Z,109.43
2018-06-08T23:16:10.694Z,95.87
2018-06-08T23:18:44.967Z,90.37
2018-06-08T23:21:19.009Z,102.00
2018-06-08T23:23:54.296Z,107.30
2018-06-08T23:26:28.141Z,108.03
2018-06-08T23:29:03.392Z,115.47
2018-06-08T23:31:36.993Z,116.83
2018-06-08T23:34:09.792Z,89.73
2018-06-08T23:36:46.002Z,93.20
2018-06-08T23:39:20.512Z,102.30
2018-06-08T23:41:54.285Z,102.30
2018-06-08T23:44:28.981Z,119.43
2018-06-08T23:47:03.644Z,113.00
2018-06-08T23:49:36.384Z,84.07
2018-06-08T23:52:12.201Z,93.13
2018-06-08T23:54:45.741Z,144.53
2018-06-08T23:57:19.946Z,136.47
2018-06-08T23:59:57.045Z,119.00
